Latest Weather Observations for Cobar

IDN60801

Issued at 6:42 pm EST Wednesday 12 August 2020 (issued every 10 minutes, with the page automatically refreshed every 10 minutes)

About weather observations | Map of weather stations | Latest weather observations for NSW | Other Formats
Station Details ID: 048027 Name: COBAR MO Lat: -31.48 Lon: 145.83 Height: 260.0 m
Data from the previous 72 hours. | See also: Recent months at Cobar
Date/Time
EST
Temp
°C
App
Temp
°C
Dew
Point
°C
Rel
Hum
%
Delta-T
°C
Wind Press
QNH
hPa
Press
MSL
hPa
Rain since
9am
mm
Dir  Spd
km/h
Gust
km/h
Spd
kts
Gust
kts
12/06:30pm 16.2 14.1 6.6 53 4.8 NW 7 7 4 4 1010.9 1010.9 0.0
12/06:00pm 17.2 15.1 6.7 50 5.3 NW 7 9 4 5 1010.5 1010.5 0.0
12/05:30pm 18.6 16.7 7.4 48 5.7 NW 7 9 4 5 1010.6 1010.6 0.0
12/05:00pm 19.7 16.8 6.4 42 6.8 WNW 11 15 6 8 1010.3 1010.3 0.0
12/04:30pm 21.1 16.9 5.9 37 7.7 NW 17 24 9 13 1010.1 1010.1 0.0
12/04:00pm 21.3 16.8 6.0 37 7.8 WNW 19 30 10 16 1010.1 1010.1 0.0
12/03:30pm 21.5 16.1 6.2 37 7.8 NW 24 37 13 20 1010.0 1010.0 0.0
12/03:00pm 21.9 17.4 6.2 36 8.1 WNW 19 30 10 16 1010.1 1010.1 0.0
12/02:30pm 21.6 16.0 5.5 35 8.1 NW 24 37 13 20 1010.1 1010.1 0.0
12/02:00pm 21.5 16.9 8.1 42 7.1 NW 22 35 12 19 1010.3 1010.3 0.0
12/01:30pm 21.7 16.9 7.5 40 7.4 NW 22 33 12 18 1010.4 1010.4 0.0
12/01:00pm 20.7 15.8 7.0 41 7.1 NW 22 32 12 17 1010.9 1010.9 0.0
12/12:30pm 20.9 16.2 7.9 43 6.8 NNW 22 35 12 19 1011.3 1011.3 0.0
12/12:00pm 20.4 16.2 7.4 43 6.8 N 19 30 10 16 1011.6 1011.6 0.0
12/11:30am 19.5 15.8 7.9 47 6.0 N 17 26 9 14 1012.0 1012.0 0.0
12/11:00am 18.4 14.4 8.4 52 5.2 NNE 19 24 10 13 1012.5 1012.5 0.0
12/10:30am 17.2 13.0 8.1 55 4.7 NNE 20 26 11 14 1012.8 1012.8 0.0
12/10:00am 16.3 12.4 7.3 55 4.5 NNE 17 26 9 14 1013.2 1013.2 0.0
12/09:30am 15.0 11.3 8.0 63 3.6 NE 17 26 9 14 1013.4 1013.4 0.0
12/09:00am 14.1 9.9 8.1 67 3.0 NE 20 28 11 15 1013.6 1013.6 1.0
12/08:30am 12.3 8.8 8.6 78 1.9 NE 17 20 9 11 1013.7 1013.7 1.0
12/08:00am 10.5 6.7 7.7 83 1.4 ENE 17 22 9 12 1013.6 1013.6 1.0
12/07:30am 10.6 6.5 7.8 83 1.4 NE 19 24 10 13 1013.6 1013.6 1.0
12/07:00am 10.4 6.7 7.8 84 1.3 NE 17 20 9 11 1013.6 1013.6 1.0
12/06:30am 10.5 7.3 8.3 86 1.1 NE 15 20 8 11 1013.5 1013.5 0.8
12/06:00am 10.1 6.8 8.2 88 0.9 NE 15 19 8 10 1013.6 1013.6 0.8
12/05:30am 10.1 6.8 8.2 88 0.9 NE 15 19 8 10 1013.6 1013.6 0.8
12/05:00am 10.5 7.5 7.9 84 1.3 NE 13 17 7 9 1013.7 1013.7 0.6
12/04:30am 10.3 7.3 7.9 85 1.2 NE 13 15 7 8 1013.5 1013.5 0.6
12/04:00am 11.0 7.9 7.1 77 1.9 NNE 13 20 7 11 1013.9 1013.9 0.4
12/03:30am 11.9 7.8 6.2 68 2.7 NE 17 22 9 12 1013.3 1013.3 0.2
12/03:00am 12.0 7.4 6.3 68 2.7 NE 20 26 11 14 1013.5 1013.5 0.2
12/02:30am 11.1 7.8 6.3 72 2.3 ENE 13 17 7 9 1013.9 1013.9 0.2
12/02:00am 10.9 8.0 6.3 73 2.2 NE 11 15 6 8 1014.3 1014.3 0.2
12/01:30am 10.8 8.2 6.2 73 2.2 NE 9 13 5 7 1014.6 1014.6 0.2
12/01:00am 11.2 8.2 6.1 71 2.4 NE 11 15 6 8 1014.4 1014.4 0.2
12/12:30am 12.0 8.7 6.3 68 2.7 NE 13 19 7 10 1014.8 1014.8 0.2
12/12:00am 12.3 8.9 6.1 66 3.0 NE 13 19 7 10 1015.4 1015.4 0.2
 
Date/Time
EST
Temp
°C
App
Temp
°C
Dew
Point
°C
Rel
Hum
%
Delta-T
°C
Wind Press
QNH
hPa
Press
MSL
hPa
Rain since
9am
mm
Dir  Spd
km/h
Gust
km/h
Spd
kts
Gust
kts
11/11:30pm 12.2 8.5 6.3 67 2.8 NE 15 22 8 12 1014.9 1014.9 0.2
11/11:00pm 11.9 8.2 6.4 69 2.6 NE 15 20 8 11 1015.4 1015.4 0.2
11/10:30pm 11.8 8.5 6.3 69 2.6 NE 13 19 7 10 1015.7 1015.8 0.2
11/10:00pm 11.7 9.2 6.4 70 2.5 NE 9 13 5 7 1015.9 1016.0 0.2
11/09:30pm 12.1 8.5 6.6 69 2.7 NE 15 19 8 10 1015.7 1015.8 0.2
11/09:00pm 12.1 8.8 6.6 69 2.7 NE 13 17 7 9 1015.9 1016.0 0.2
11/08:30pm 12.2 9.0 6.7 69 2.7 ENE 13 17 7 9 1015.6 1015.7 0.2
11/08:00pm 12.4 9.2 6.7 68 2.8 ENE 13 17 7 9 1015.2 1015.2 0.2
11/07:30pm 12.3 9.5 6.8 69 2.7 ENE 11 15 6 8 1015.6 1015.7 0.2
11/07:00pm 12.2 9.8 7.1 71 2.5 ENE 9 13 5 7 1015.7 1015.8 0.2
11/06:30pm 12.3 9.6 7.2 71 2.5 ENE 11 13 6 7 1015.7 1015.8 0.2
11/06:00pm 12.9 10.5 6.9 67 2.9 ENE 9 13 5 7 1015.7 1015.8 0.2
11/05:30pm 13.6 10.8 6.9 64 3.3 ENE 11 15 6 8 1015.0 1015.0 0.2
11/05:00pm 14.1 10.5 6.7 61 3.6 E 15 20 8 11 1014.9 1014.9 0.2
11/04:30pm 14.5 10.9 6.6 59 3.9 ENE 15 22 8 12 1014.9 1014.9 0.2
11/04:00pm 14.6 10.6 6.7 59 3.9 ENE 17 20 9 11 1015.1 1015.1 0.2
11/03:30pm 15.0 12.2 6.8 58 4.1 NE 11 17 6 9 1016.4 1016.4 0.2
11/03:00pm 15.0 12.1 6.6 57 4.1 NE 11 17 6 9 1017.0 1017.0 0.2
11/02:30pm 15.2 11.9 6.2 55 4.4 NNE 13 19 7 10 1017.0 1017.0 0.2
11/02:00pm 15.3 11.6 6.3 55 4.4 N 15 22 8 12 1017.1 1017.1 0.2
11/01:30pm 14.8 10.7 6.4 57 4.1 NNE 17 20 9 11 1017.1 1017.1 0.2
11/01:00pm 15.0 11.3 6.3 56 4.3 NNE 15 20 8 11 1017.3 1017.3 0.2
11/12:30pm 15.1 11.0 6.1 55 4.4 NE 17 24 9 13 1017.8 1017.8 0.2
11/12:00pm 16.3 11.6 5.9 50 5.1 NE 20 28 11 15 1018.5 1018.5 0.2
11/11:30am 15.1 10.4 6.1 55 4.4 NNE 20 28 11 15 1019.4 1019.5 0.0
11/11:00am 13.8 8.9 5.2 56 4.1 NNE 20 28 11 15 1019.3 1019.4 0.0
11/10:30am 14.6 8.9 5.1 53 4.5 NE 24 30 13 16 1019.5 1019.6 0.0
11/10:00am 13.9 9.1 5.5 57 4.0 NNE 20 30 11 16 1020.5 1020.5 0.0
11/09:30am 12.3 7.8 6.1 66 3.0 NNE 19 26 10 14 1020.4 1020.4 0.0
11/09:00am 10.9 5.6 5.0 67 2.7 NNE 22 32 12 17 1020.4 1020.4 0.0
11/08:30am 10.4 6.3 6.0 74 2.1 NE 17 28 9 15 1020.2 1020.3 0.0
11/08:00am 8.4 4.3 6.0 85 1.1 NE 17 22 9 12 1020.0 1020.1 0.0
11/07:30am 6.7 2.7 5.0 89 0.8 NE 15 20 8 11 1019.9 1020.0 0.0
11/07:00am 6.2 2.5 4.7 90 0.7 ENE 13 15 7 8 1020.0 1020.1 0.0
11/06:30am 6.3 3.0 4.8 90 0.7 ENE 11 13 6 7 1019.6 1019.7 0.0
11/06:00am 6.1 2.8 4.6 90 0.7 E 11 11 6 6 1019.1 1019.2 0.0
11/05:30am 6.6 3.3 4.6 87 0.9 E 11 13 6 7 1018.9 1019.0 0.0
11/05:00am 6.9 3.3 4.9 87 0.9 E 13 17 7 9 1018.5 1018.5 0.0
11/04:30am 6.9 3.7 4.9 87 0.9 ESE 11 15 6 8 1018.5 1018.5 0.0
11/04:00am 7.2 3.6 5.2 87 0.9 E 13 15 7 8 1018.7 1018.7 0.0
11/03:30am 7.0 3.8 5.2 88 0.8 E 11 13 6 7 1018.7 1018.7 0.0
11/03:00am 7.2 4.1 5.5 89 0.8 E 11 13 6 7 1018.8 1018.9 0.0
11/02:30am 7.1 4.0 5.6 90 0.7 E 11 13 6 7 1019.0 1019.1 0.0
11/02:00am 7.2 4.9 5.5 89 0.8 E 7 9 4 5 1019.4 1019.5 0.0
11/01:30am 7.5 4.4 5.6 88 0.9 ESE 11 13 6 7 1019.5 1019.6 0.0
11/01:00am 8.0 4.6 6.0 87 0.9 E 13 15 7 8 1019.5 1019.6 0.0
11/12:30am 8.3 5.3 6.1 86 1.0 ESE 11 15 6 8 1019.7 1019.8 0.0
11/12:00am 8.0 4.6 6.1 88 0.9 ESE 13 15 7 8 1019.7 1019.8 0.0
 
Date/Time
EST
Temp
°C
App
Temp
°C
Dew
Point
°C
Rel
Hum
%
Delta-T
°C
Wind Press
QNH
hPa
Press
MSL
hPa
Rain since
9am
mm
Dir  Spd
km/h
Gust
km/h
Spd
kts
Gust
kts
10/11:30pm 8.2 4.9 6.2 87 0.9 ESE 13 15 7 8 1020.1 1020.2 0.0
10/11:00pm 8.4 5.5 6.4 87 0.9 ESE 11 13 6 7 1020.2 1020.3 0.0
10/10:30pm 8.4 5.8 6.0 85 1.1 ESE 9 11 5 6 1020.5 1020.5 0.0
10/10:00pm 8.7 5.8 6.3 85 1.1 ESE 11 13 6 7 1020.5 1020.5 0.0
10/09:30pm 9.0 6.4 6.3 83 1.3 ESE 9 13 5 7 1020.5 1020.5 0.0
10/09:00pm 9.7 7.5 6.1 78 1.7 SE 7 9 4 5 1020.8 1020.8 0.0
10/08:30pm 10.8 8.3 6.7 76 2.0 SE 9 11 5 6 1020.6 1020.6 0.0
10/08:00pm 11.1 8.6 6.6 74 2.1 ESE 9 11 5 6 1020.2 1020.3 0.0
10/07:30pm 11.9 9.8 6.6 70 2.6 SE 7 9 4 5 1019.8 1019.9 0.0
10/07:00pm 12.8 10.6 6.4 65 3.1 SE 7 7 4 4 1019.5 1019.6 0.0
10/06:30pm 13.4 11.4 6.3 62 3.4 SSE 6 6 3 3 1019.2 1019.3 0.0
10/06:00pm 14.8 11.9 6.4 57 4.1 SSE 11 13 6 7 1018.7 1018.7 0.0
10/05:30pm 15.7 12.8 6.4 54 4.6 S 11 17 6 9 1018.5 1018.5 0.0
10/05:00pm 16.5 13.1 6.1 50 5.1 SSE 13 19 7 10 1018.1 1018.1 0.0
10/04:30pm 17.1 14.0 5.7 47 5.6 S 11 17 6 9 1018.0 1018.0 0.0
10/04:00pm 17.3 14.3 5.9 47 5.6 SE 11 17 6 9 1018.0 1018.0 0.0
10/03:30pm 17.6 14.6 5.9 46 5.8 SSE 11 19 6 10 1018.1 1018.1 0.0
10/03:00pm 17.4 13.9 5.4 45 5.9 SSE 13 20 7 11 1018.0 1018.0 0.0
10/02:30pm 17.5 13.4 6.1 47 5.7 SE 17 24 9 13 1017.8 1017.8 0.0
10/02:00pm 17.6 14.0 6.8 49 5.4 ESE 15 24 8 13 1017.7 1017.7 0.0
10/01:30pm 17.4 13.5 6.9 50 5.3 SSE 17 22 9 12 1018.1 1018.1 0.0
10/01:00pm 17.2 14.0 6.7 50 5.3 SE 13 20 7 11 1018.4 1018.4 0.0
10/12:30pm 16.3 12.1 5.6 49 5.2 SE 17 26 9 14 1018.6 1018.6 0.0
10/12:00pm 15.4 11.8 5.0 50 5.0 SSE 13 20 7 11 1018.8 1018.9 0.0
10/11:30am 14.8 11.0 5.6 54 4.4 S 15 26 8 14 1019.3 1019.4 0.0
10/11:00am 14.3 9.8 6.2 58 3.9 S 19 26 10 14 1019.5 1019.6 0.0
10/10:30am 13.0 8.2 4.9 58 3.8 SSE 19 28 10 15 1019.4 1019.5 0.0
10/10:00am 12.5 8.6 5.4 62 3.3 SSE 15 24 8 13 1019.3 1019.4 0.0
10/09:30am 11.4 7.5 5.5 67 2.8 SSW 15 20 8 11 1019.1 1019.2 0.0
10/09:00am 10.3 6.6 6.5 77 1.8 SSW 15 20 8 11 1019.3 1019.4 0.6
10/08:30am 8.8 5.6 6.9 88 0.9 SSW 13 17 7 9 1019.0 1019.1 0.6
10/08:00am 8.2 5.9 7.3 94 0.4 SW 9 13 5 7 1018.7 1018.7 0.6
10/07:30am 7.3 4.4 6.7 96 0.3 SW 11 15 6 8 1018.3 1018.3 0.6
10/07:00am 7.2 4.3 6.5 95 0.3 SW 11 15 6 8 1018.0 1018.0 0.6
10/06:44am 7.3 4.8 6.4 94 0.4 SW 9 13 5 7 1017.8 1017.8 0.6
10/06:30am 7.7 5.2 6.6 93 0.5 SSW 9 15 5 8 1017.6 1017.6 0.6
10/06:00am 8.4 5.2 7.0 91 0.7 SSW 13 20 7 11 1017.5 1017.5 0.6
10/05:30am 8.7 5.2 7.3 91 0.7 SSW 15 22 8 12 1017.3 1017.3 0.6
10/05:00am 8.7 5.3 7.5 92 0.6 SW 15 20 8 11 1017.0 1017.0 0.6
10/04:30am 8.9 5.5 7.5 91 0.7 SSW 15 22 8 12 1016.7 1016.7 0.6
10/04:00am 8.8 5.4 7.6 92 0.6 SW 15 20 8 11 1016.6 1016.6 0.6
10/03:30am 9.0 5.6 7.8 92 0.6 SW 15 20 8 11 1016.6 1016.6 0.6
10/03:00am 9.1 6.1 7.9 92 0.6 SW 13 24 7 13 1016.6 1016.6 0.6
10/02:30am 9.0 5.3 7.8 92 0.6 SW 17 24 9 13 1016.4 1016.4 0.6
10/02:00am 9.0 5.3 7.9 93 0.5 SW 17 24 9 13 1016.5 1016.5 0.6
10/01:30am 9.0 5.7 7.9 93 0.5 SW 15 22 8 12 1016.5 1016.5 0.6
10/01:00am 8.7 5.7 7.9 95 0.4 SW 13 22 7 12 1016.6 1016.6 0.6
10/12:30am 8.4 5.4 7.8 96 0.3 WSW 13 19 7 10 1016.7 1016.7 0.6
10/12:00am 8.2 5.2 7.8 97 0.2 SW 13 19 7 10 1016.7 1016.7 0.6
 
Date/Time
EST
Temp
°C
App
Temp
°C
Dew
Point
°C
Rel
Hum
%
Delta-T
°C
Wind Press
QNH
hPa
Press
MSL
hPa
Rain since
9am
mm
Dir  Spd
km/h
Gust
km/h
Spd
kts
Gust
kts
09/11:30pm 8.0 4.9 7.4 96 0.3 SW 13 17 7 9 1016.9 1016.9 0.6
09/11:00pm 8.0 4.5 7.2 95 0.4 SW 15 20 8 11 1016.9 1016.9 0.6
09/10:30pm 7.9 4.8 7.3 96 0.3 SW 13 19 7 10 1017.1 1017.1 0.6
09/10:00pm 7.8 3.9 7.2 96 0.3 SW 17 24 9 13 1017.1 1017.1 0.6
09/09:30pm 7.6 4.0 6.7 94 0.4 SW 15 20 8 11 1016.9 1016.9 0.6
09/09:19pm 7.6 3.9 6.4 92 0.6 WSW 15 20 8 11 1016.8 1016.8 0.6
09/09:14pm 7.7 4.4 6.3 91 0.6 SW 13 19 7 10 1016.9 1016.9 0.6
09/09:00pm 7.9 3.7 5.7 86 1.0 SW 17 20 9 11 1017.0 1017.0 0.6
09/08:30pm 7.8 4.7 5.4 85 1.1 SW 11 20 6 11 1016.7 1016.7 0.6
09/08:00pm 7.3 4.5 5.1 86 1.0 SW 9 13 5 7 1016.4 1016.4 0.6
09/07:30pm 7.4 4.2 4.9 84 1.1 SW 11 13 6 7 1016.2 1016.3 0.6
09/07:00pm 8.1 4.9 5.2 82 1.3 SSW 11 17 6 9 1016.1 1016.2 0.6

Other formats

Comma delimited format used in spreadsheet applications
http://www.bom.gov.au/fwo/IDN60801/IDN60801.94711.axf

JavaScript Object Notation format (JSON) in row-major order
http://www.bom.gov.au/fwo/IDN60801/IDN60801.94711.json

Data quality

Most of these data are generated automatically and are frequently updated. Quality checks on data are not normally performed. It is possible for incorrect values to appear. Refer to information at About Latest Weather Observations and please check the disclaimer before using these data.